createdAt,value
2022-08-17T00:00:42.715Z,8.43
2022-08-17T00:03:17.196Z,8.60
2022-08-17T00:05:48.787Z,8.70
2022-08-17T00:08:20.349Z,8.63
2022-08-17T00:10:49.900Z,8.83
2022-08-17T00:13:21.557Z,9.10
2022-08-17T00:15:51.797Z,8.80
2022-08-17T00:19:02.014Z,9.60
2022-08-17T00:21:11.335Z,10.10
2022-08-17T00:23:47.752Z,9.90
2022-08-17T00:26:43.442Z,9.80
2022-08-17T00:29:09.113Z,9.70
2022-08-17T00:31:39.359Z,9.47
2022-08-17T00:34:10.304Z,9.47
2022-08-17T00:36:39.361Z,9.87
2022-08-17T00:39:08.179Z,10.47
2022-08-17T00:41:42.094Z,10.07
2022-08-17T00:44:12.469Z,9.60
2022-08-17T00:46:44.407Z,9.33
2022-08-17T00:49:15.408Z,9.03
2022-08-17T00:51:47.542Z,8.30
2022-08-17T00:54:19.988Z,9.40
2022-08-17T00:56:53.760Z,9.10
2022-08-17T00:59:25.187Z,9.90
2022-08-17T01:01:55.460Z,9.70
2022-08-17T01:04:25.286Z,8.90
2022-08-17T01:06:54.858Z,9.40
2022-08-17T01:09:24.151Z,10.00
2022-08-17T01:11:53.165Z,8.93
2022-08-17T01:14:23.016Z,9.10
2022-08-17T01:16:53.910Z,9.70
2022-08-17T01:19:26.667Z,9.33
2022-08-17T01:22:02.220Z,9.73
2022-08-17T01:24:33.681Z,10.17
2022-08-17T01:27:02.880Z,10.20
2022-08-17T01:29:42.298Z,10.10
2022-08-17T01:32:11.508Z,10.47
2022-08-17T01:34:42.954Z,9.40
2022-08-17T01:37:14.118Z,10.73
2022-08-17T01:39:46.898Z,10.73
2022-08-17T01:42:22.036Z,10.10
2022-08-17T01:44:54.520Z,10.10
2022-08-17T01:47:23.548Z,10.13
2022-08-17T01:49:52.918Z,11.70
2022-08-17T01:52:23.790Z,11.97
2022-08-17T01:54:54.516Z,10.47
2022-08-17T01:57:23.368Z,10.97
2022-08-17T01:59:52.300Z,10.90
2022-08-17T02:02:30.349Z,10.10
2022-08-17T02:05:00.151Z,10.40
2022-08-17T02:07:29.517Z,10.00
2022-08-17T02:09:59.641Z,10.17
2022-08-17T02:12:38.591Z,10.67
2022-08-17T02:15:12.465Z,10.47
2022-08-17T02:17:41.956Z,10.33
2022-08-17T02:20:12.067Z,12.07
2022-08-17T02:22:42.532Z,11.53
2022-08-17T02:25:16.351Z,11.07
2022-08-17T02:27:45.360Z,10.10
2022-08-17T02:30:59.028Z,10.20
2022-08-17T02:33:06.285Z,10.10
2022-08-17T02:35:38.201Z,10.30
2022-08-17T02:38:07.808Z,10.10
2022-08-17T02:40:40.666Z,9.87
2022-08-17T02:43:10.376Z,11.93
2022-08-17T02:45:39.237Z,10.93
2022-08-17T02:48:08.070Z,11.00
2022-08-17T02:50:37.168Z,10.57
2022-08-17T02:53:06.277Z,11.30
2022-08-17T02:55:38.950Z,11.30
2022-08-17T02:58:08.249Z,10.50
2022-08-17T03:00:41.227Z,10.73
2022-08-17T03:03:13.708Z,10.20
2022-08-17T03:05:43.226Z,9.83
2022-08-17T03:08:13.134Z,9.60
2022-08-17T03:10:44.256Z,9.43
2022-08-17T03:13:14.764Z,9.53
2022-08-17T03:15:46.118Z,11.53
2022-08-17T03:18:25.082Z,11.00
2022-08-17T03:20:57.758Z,11.40
2022-08-17T03:23:27.206Z,11.30
2022-08-17T03:25:58.241Z,10.27
2022-08-17T03:28:28.351Z,10.27
2022-08-17T03:30:57.326Z,11.23
2022-08-17T03:33:26.367Z,11.77
2022-08-17T03:35:55.229Z,10.90
2022-08-17T03:38:24.428Z,12.10
2022-08-17T03:40:58.057Z,11.90
2022-08-17T03:43:31.396Z,11.60
2022-08-17T03:46:33.829Z,11.77
2022-08-17T03:49:23.081Z,12.37
2022-08-17T03:52:09.486Z,11.50
2022-08-17T03:54:55.738Z,11.93
2022-08-17T03:57:26.086Z,11.77
2022-08-17T03:59:57.187Z,11.13
2022-08-17T04:02:30.026Z,11.00
2022-08-17T04:04:59.649Z,10.90
2022-08-17T04:07:31.657Z,12.33
2022-08-17T04:10:00.738Z,11.90
2022-08-17T04:12:31.508Z,11.30
2022-08-17T04:15:01.813Z,11.27
2022-08-17T04:17:31.260Z,10.77
2022-08-17T04:20:00.178Z,10.50
2022-08-17T04:22:31.229Z,10.50
2022-08-17T04:25:05.171Z,10.70
2022-08-17T04:27:34.077Z,10.50
2022-08-17T04:30:07.540Z,11.13
2022-08-17T04:33:09.882Z,16.67
2022-08-17T04:35:42.427Z,60.27
2022-08-17T04:38:13.340Z,35.63
2022-08-17T04:40:59.629Z,22.67
2022-08-17T04:43:30.176Z,17.33
2022-08-17T04:46:03.796Z,14.77
2022-08-17T04:48:37.021Z,13.87
2022-08-17T04:51:10.195Z,12.83
2022-08-17T04:53:40.568Z,12.47
2022-08-17T04:56:11.779Z,11.47
2022-08-17T04:58:46.579Z,10.07
2022-08-17T05:01:23.643Z,10.60
2022-08-17T05:03:53.377Z,10.38
2022-08-17T05:06:22.623Z,10.40
2022-08-17T05:08:51.462Z,10.70
2022-08-17T05:11:20.525Z,11.50
2022-08-17T05:13:50.494Z,10.23
2022-08-17T05:16:22.349Z,10.38
2022-08-17T05:18:51.858Z,9.50
2022-08-17T05:21:21.456Z,9.65
2022-08-17T05:23:54.737Z,9.32
2022-08-17T05:26:26.800Z,11.07
2022-08-17T05:28:59.592Z,10.82
2022-08-17T05:31:32.202Z,11.10
2022-08-17T05:34:01.257Z,11.32
2022-08-17T05:36:41.963Z,10.35
2022-08-17T05:39:15.881Z,9.85
2022-08-17T05:41:47.934Z,10.43
2022-08-17T05:44:17.263Z,10.80
2022-08-17T05:46:52.282Z,8.85
2022-08-17T05:49:28.469Z,8.38
2022-08-17T05:52:22.228Z,9.00
2022-08-17T05:55:04.738Z,8.45
2022-08-17T05:57:56.043Z,7.90
2022-08-17T06:00:30.854Z,8.90
2022-08-17T06:03:21.898Z,9.40
2022-08-17T06:06:04.542Z,8.80
2022-08-17T06:08:38.607Z,9.05
2022-08-17T06:11:19.848Z,9.00
2022-08-17T06:14:02.198Z,8.82
2022-08-17T06:16:36.831Z,8.90
2022-08-17T06:19:15.187Z,8.35
2022-08-17T06:21:47.586Z,8.38
2022-08-17T06:24:34.413Z,8.40
2022-08-17T06:27:09.708Z,8.63
2022-08-17T06:29:46.490Z,8.40
2022-08-17T06:32:18.030Z,8.75
2022-08-17T06:34:49.359Z,8.93
2022-08-17T06:37:33.225Z,9.05
2022-08-17T06:40:23.231Z,8.88
2022-08-17T06:43:06.545Z,8.65
2022-08-17T06:45:40.658Z,8.43
2022-08-17T06:48:14.311Z,8.35
2022-08-17T06:50:49.215Z,9.27
2022-08-17T06:53:25.167Z,10.63
2022-08-17T06:56:00.018Z,9.98
2022-08-17T06:58:33.555Z,9.25
2022-08-17T07:01:09.710Z,9.13
2022-08-17T07:03:54.715Z,10.52
2022-08-17T07:06:29.192Z,10.85
2022-08-17T07:09:05.500Z,9.73
2022-08-17T07:11:42.682Z,10.10
2022-08-17T07:14:36.697Z,9.75
2022-08-17T07:17:10.542Z,9.30
2022-08-17T07:19:45.604Z,8.38
2022-08-17T07:22:28.087Z,8.70
2022-08-17T07:24:59.837Z,8.82
2022-08-17T07:27:31.738Z,9.07
2022-08-17T07:30:09.547Z,8.60
2022-08-17T07:32:45.440Z,8.40
2022-08-17T07:35:17.891Z,8.05
2022-08-17T07:37:54.501Z,7.97
2022-08-17T07:40:28.368Z,8.90
2022-08-17T07:43:06.530Z,7.88
2022-08-17T07:45:54.457Z,9.90
2022-08-17T07:48:27.098Z,9.90
2022-08-17T07:50:56.048Z,10.20
2022-08-17T07:53:27.658Z,8.63
2022-08-17T07:55:56.510Z,9.80
2022-08-17T07:58:26.736Z,9.20
2022-08-17T08:01:08.078Z,8.93
2022-08-17T08:03:42.920Z,8.50
2022-08-17T08:06:22.768Z,8.88
2022-08-17T08:08:57.358Z,8.60
2022-08-17T08:11:42.454Z,8.43
2022-08-17T08:14:28.281Z,7.75
2022-08-17T08:17:00.505Z,8.88
2022-08-17T08:19:30.629Z,9.70
2022-08-17T08:22:06.297Z,9.60
2022-08-17T08:24:52.257Z,9.25
2022-08-17T08:27:31.410Z,9.88
2022-08-17T08:30:07.931Z,9.63
2022-08-17T08:32:50.295Z,9.15
2022-08-17T08:35:27.146Z,8.57
2022-08-17T08:38:07.746Z,9.10
2022-08-17T08:40:54.185Z,8.55
2022-08-17T08:43:30.557Z,9.00
2022-08-17T08:46:05.230Z,8.90
2022-08-17T08:49:06.548Z,8.80
2022-08-17T08:51:48.419Z,8.63
2022-08-17T08:54:34.609Z,8.43
2022-08-17T08:57:29.213Z,8.93
2022-08-17T09:00:14.627Z,8.65
2022-08-17T09:03:12.877Z,9.00
2022-08-17T09:06:06.968Z,9.30
2022-08-17T09:09:07.159Z,8.68
2022-08-17T09:12:01.973Z,8.32
2022-08-17T09:14:45.073Z,8.40
2022-08-17T09:17:21.577Z,8.75
2022-08-17T09:19:56.012Z,8.80
2022-08-17T09:22:33.772Z,8.90
2022-08-17T09:25:09.436Z,8.25
2022-08-17T09:27:49.778Z,7.97
2022-08-17T09:30:20.750Z,7.80
2022-08-17T09:32:57.617Z,8.18
2022-08-17T09:35:33.763Z,8.93
2022-08-17T09:38:18.821Z,8.77
2022-08-17T09:40:52.853Z,8.45
2022-08-17T09:43:31.701Z,8.35
2022-08-17T09:46:05.213Z,8.85
2022-08-17T09:48:40.181Z,8.30
2022-08-17T09:51:14.672Z,8.30
2022-08-17T09:53:44.808Z,7.72
2022-08-17T09:56:42.333Z,7.65
2022-08-17T09:59:34.190Z,7.18
2022-08-17T10:02:44.429Z,7.78
2022-08-17T10:05:19.034Z,7.55
2022-08-17T10:07:56.063Z,7.72
2022-08-17T10:10:30.502Z,8.07
2022-08-17T10:13:06.390Z,8.10
2022-08-17T10:15:48.301Z,7.88
2022-08-17T10:18:35.541Z,8.20
2022-08-17T10:21:25.830Z,8.63
2022-08-17T10:24:23.188Z,9.05
2022-08-17T10:26:56.551Z,9.25
2022-08-17T10:29:30.046Z,9.40
2022-08-17T10:32:27.018Z,8.55
2022-08-17T10:35:17.940Z,8.13
2022-08-17T10:38:15.431Z,8.95
2022-08-17T10:40:51.477Z,9.40
2022-08-17T10:43:34.998Z,10.00
2022-08-17T10:46:30.662Z,9.30
2022-08-17T10:49:25.771Z,9.85
2022-08-17T10:51:57.131Z,9.02
2022-08-17T10:54:47.411Z,9.50
2022-08-17T10:57:40.516Z,9.13
2022-08-17T11:00:14.826Z,10.65
2022-08-17T11:02:52.178Z,9.20
2022-08-17T11:05:45.108Z,9.18
2022-08-17T11:09:03.902Z,9.02
2022-08-17T11:11:47.562Z,9.70
2022-08-17T11:14:33.290Z,9.65
2022-08-17T11:17:20.331Z,9.93
2022-08-17T11:20:05.629Z,9.80
2022-08-17T11:23:10.182Z,9.00
2022-08-17T11:25:41.875Z,9.05
2022-08-17T11:28:19.577Z,8.82
2022-08-17T11:30:52.046Z,10.73
2022-08-17T11:33:57.516Z,11.10
2022-08-17T11:37:10.885Z,10.50
2022-08-17T11:40:09.113Z,11.07
2022-08-17T11:43:03.441Z,9.82
2022-08-17T11:46:11.800Z,9.95
2022-08-17T11:49:21.155Z,9.52
2022-08-17T11:52:10.209Z,8.68
2022-08-17T11:54:47.182Z,7.70
2022-08-17T11:57:55.763Z,8.52
2022-08-17T12:00:56.872Z,9.25
2022-08-17T12:03:58.141Z,8.25
2022-08-17T12:06:41.871Z,8.52
2022-08-17T12:09:18.090Z,8.48
2022-08-17T12:11:55.159Z,8.73
2022-08-17T12:15:08.885Z,9.32
2022-08-17T12:17:41.207Z,9.00
2022-08-17T12:20:16.271Z,8.30
2022-08-17T12:22:54.817Z,8.25
2022-08-17T12:25:33.142Z,8.45
2022-08-17T12:28:05.962Z,8.77
2022-08-17T12:30:37.882Z,8.30
2022-08-17T12:33:25.460Z,8.00
2022-08-17T12:36:04.226Z,7.90
2022-08-17T12:38:34.840Z,8.13
2022-08-17T12:41:26.441Z,8.90
2022-08-17T12:44:02.483Z,9.20
2022-08-17T12:46:35.850Z,8.30
2022-08-17T12:49:15.632Z,8.73
2022-08-17T12:51:47.989Z,8.93
2022-08-17T12:54:28.364Z,8.50
2022-08-17T12:56:57.453Z,8.60
2022-08-17T12:59:30.236Z,8.65
2022-08-17T13:02:00.261Z,9.02
2022-08-17T13:04:29.745Z,9.02
2022-08-17T13:07:00.126Z,8.90
2022-08-17T13:09:36.059Z,9.23
2022-08-17T13:12:10.964Z,10.00
2022-08-17T13:14:45.802Z,10.80
2022-08-17T13:17:15.120Z,10.65
2022-08-17T13:19:50.845Z,10.48
2022-08-17T13:22:24.700Z,11.38
2022-08-17T13:24:55.750Z,10.30
2022-08-17T13:27:26.922Z,10.50
2022-08-17T13:29:59.557Z,10.38
2022-08-17T13:32:37.897Z,10.68
2022-08-17T13:35:40.544Z,10.15
2022-08-17T13:38:15.217Z,10.40
2022-08-17T13:40:49.235Z,10.25
2022-08-17T13:43:40.845Z,10.60
2022-08-17T13:46:11.450Z,10.70
2022-08-17T13:48:40.183Z,10.85
2022-08-17T13:51:31.580Z,11.27
2022-08-17T13:54:09.944Z,11.63
2022-08-17T13:56:46.681Z,11.63
2022-08-17T13:59:53.255Z,11.40
2022-08-17T14:02:15.394Z,9.63
2022-08-17T14:04:46.191Z,10.20
2022-08-17T14:07:33.800Z,9.88
2022-08-17T14:10:08.419Z,9.75
2022-08-17T14:12:39.271Z,9.52
2022-08-17T14:15:09.261Z,9.45
2022-08-17T14:17:39.085Z,9.20
2022-08-17T14:20:11.842Z,9.77
2022-08-17T14:22:44.490Z,10.23
2022-08-17T14:25:16.743Z,9.57
2022-08-17T14:27:52.467Z,9.30
2022-08-17T14:30:25.165Z,8.73
2022-08-17T14:32:54.715Z,9.50
2022-08-17T14:35:24.435Z,9.00
2022-08-17T14:37:54.153Z,8.88
2022-08-17T14:40:25.550Z,10.32
2022-08-17T14:42:55.629Z,9.90
2022-08-17T14:45:30.186Z,9.60
2022-08-17T14:48:05.690Z,10.00
2022-08-17T14:50:35.685Z,9.80
2022-08-17T14:53:05.973Z,10.38
2022-08-17T14:55:39.910Z,9.70
2022-08-17T14:58:08.865Z,9.65
2022-08-17T15:00:37.547Z,9.90
2022-08-17T15:03:06.822Z,9.73
2022-08-17T15:05:37.622Z,9.77
2022-08-17T15:08:07.502Z,10.18
2022-08-17T15:10:39.081Z,9.55
2022-08-17T15:13:22.788Z,10.35
2022-08-17T15:15:51.751Z,10.05
2022-08-17T15:18:20.342Z,9.88
2022-08-17T15:20:50.710Z,10.43
2022-08-17T15:23:21.120Z,10.10
2022-08-17T15:25:52.721Z,9.77
2022-08-17T15:28:22.913Z,9.63
2022-08-17T15:30:52.616Z,9.75
2022-08-17T15:33:23.984Z,9.25
2022-08-17T15:35:54.189Z,9.10
2022-08-17T15:38:23.547Z,9.30
2022-08-17T15:40:54.353Z,9.15
2022-08-17T15:43:27.670Z,9.10
2022-08-17T15:46:01.267Z,10.27
2022-08-17T15:48:42.216Z,10.43
2022-08-17T15:51:13.675Z,10.02
2022-08-17T15:53:43.326Z,9.32
2022-08-17T15:56:15.049Z,9.02
2022-08-17T15:58:46.614Z,9.60
2022-08-17T16:01:31.337Z,9.43
2022-08-17T16:04:07.075Z,9.90
2022-08-17T16:06:37.813Z,9.20
2022-08-17T16:09:06.301Z,10.30
2022-08-17T16:11:36.591Z,10.60
2022-08-17T16:14:05.247Z,9.30
2022-08-17T16:16:34.428Z,9.88
2022-08-17T16:19:02.852Z,8.40
2022-08-17T16:21:42.761Z,9.23
2022-08-17T16:24:12.823Z,8.85
2022-08-17T16:26:43.681Z,8.55
2022-08-17T16:29:12.400Z,8.50
2022-08-17T16:31:41.879Z,9.30
2022-08-17T16:34:17.135Z,9.43
2022-08-17T16:36:54.658Z,9.23
2022-08-17T16:39:26.657Z,9.10
2022-08-17T16:41:56.763Z,8.32
2022-08-17T16:44:26.160Z,8.38
2022-08-17T16:46:54.740Z,7.85
2022-08-17T16:49:23.296Z,8.45
2022-08-17T16:52:06.199Z,8.88
2022-08-17T16:54:35.510Z,9.00
2022-08-17T16:57:06.014Z,9.07
2022-08-17T16:59:39.603Z,9.15
2022-08-17T17:02:14.908Z,8.70
2022-08-17T17:04:49.666Z,9.50
2022-08-17T17:07:37.326Z,9.40
2022-08-17T17:10:10.390Z,8.93
2022-08-17T17:13:01.933Z,9.05
2022-08-17T17:15:43.677Z,9.40
2022-08-17T17:18:14.753Z,8.57
2022-08-17T17:20:49.999Z,8.75
2022-08-17T17:23:34.953Z,9.20
2022-08-17T17:26:11.884Z,9.57
2022-08-17T17:29:00.835Z,8.90
2022-08-17T17:31:38.176Z,9.10
2022-08-17T17:34:11.400Z,9.07
2022-08-17T17:36:43.151Z,9.00
2022-08-17T17:39:16.561Z,9.18
2022-08-17T17:41:50.091Z,8.73
2022-08-17T17:44:25.453Z,9.82
2022-08-17T17:46:57.961Z,9.50
2022-08-17T17:49:29.772Z,9.20
2022-08-17T17:52:14.419Z,9.60
2022-08-17T17:55:04.380Z,9.20
2022-08-17T17:57:51.102Z,8.75
2022-08-17T18:00:25.058Z,8.60
2022-08-17T18:03:15.231Z,9.30
2022-08-17T18:05:58.173Z,8.90
2022-08-17T18:08:47.870Z,8.80
2022-08-17T18:11:35.252Z,9.18
2022-08-17T18:14:15.161Z,8.95
2022-08-17T18:16:48.102Z,8.02
2022-08-17T18:19:20.076Z,8.80
2022-08-17T18:21:53.893Z,8.90
2022-08-17T18:24:33.161Z,8.32
2022-08-17T18:27:03.040Z,8.95
2022-08-17T18:29:45.489Z,8.85
2022-08-17T18:32:23.510Z,9.20
2022-08-17T18:34:54.283Z,8.60
2022-08-17T18:37:40.857Z,7.93
2022-08-17T18:40:34.731Z,8.35
2022-08-17T18:43:22.710Z,8.35
2022-08-17T18:45:53.515Z,8.18
2022-08-17T18:48:33.341Z,8.18
2022-08-17T18:51:39.688Z,8.70
2022-08-17T18:54:17.351Z,7.93
2022-08-17T18:56:51.341Z,7.97
2022-08-17T18:59:28.916Z,7.45
2022-08-17T19:02:38.799Z,7.45
2022-08-17T19:05:14.425Z,6.90
2022-08-17T19:07:45.194Z,8.00
2022-08-17T19:10:22.385Z,8.15
2022-08-17T19:13:00.231Z,7.78
2022-08-17T19:15:35.759Z,8.05
2022-08-17T19:18:15.087Z,7.60
2022-08-17T19:20:51.080Z,7.93
2022-08-17T19:23:24.995Z,7.88
2022-08-17T19:25:58.365Z,8.20
2022-08-17T19:28:30.712Z,7.13
2022-08-17T19:31:04.065Z,7.82
2022-08-17T19:33:33.297Z,7.57
2022-08-17T19:36:08.486Z,7.53
2022-08-17T19:38:47.246Z,7.47
2022-08-17T19:41:23.236Z,7.90
2022-08-17T19:44:15.892Z,8.10
2022-08-17T19:46:56.043Z,8.23
2022-08-17T19:49:41.579Z,7.70
2022-08-17T19:52:24.156Z,7.65
2022-08-17T19:55:01.049Z,7.93
2022-08-17T19:57:49.968Z,7.65
2022-08-17T20:00:19.637Z,7.30
2022-08-17T20:03:07.991Z,7.13
2022-08-17T20:06:08.847Z,6.80
2022-08-17T20:08:34.425Z,6.80
2022-08-17T20:11:09.572Z,7.10
2022-08-17T20:13:43.368Z,7.45
2022-08-17T20:16:12.640Z,7.20
2022-08-17T20:18:50.904Z,7.00
2022-08-17T20:21:26.800Z,7.55
2022-08-17T20:24:05.759Z,7.30
2022-08-17T20:26:58.586Z,7.90
2022-08-17T20:29:39.726Z,7.20
2022-08-17T20:32:26.978Z,7.43
2022-08-17T20:35:21.039Z,7.50
2022-08-17T20:37:56.552Z,7.40
2022-08-17T20:40:33.070Z,7.35
2022-08-17T20:43:39.971Z,8.05
2022-08-17T20:46:18.961Z,8.13
2022-08-17T20:48:50.700Z,8.02
2022-08-17T20:51:27.193Z,7.85
2022-08-17T20:54:35.722Z,7.70
2022-08-17T20:57:06.098Z,7.40
2022-08-17T21:00:14.147Z,7.60
2022-08-17T21:02:44.822Z,7.53
2022-08-17T21:05:38.303Z,7.72
2022-08-17T21:08:15.999Z,7.30
2022-08-17T21:10:47.127Z,6.80
2022-08-17T21:13:39.005Z,7.60
2022-08-17T21:16:27.516Z,8.07
2022-08-17T21:19:19.260Z,7.88
2022-08-17T21:21:59.810Z,7.80
2022-08-17T21:24:41.631Z,7.68
2022-08-17T21:27:24.810Z,7.50
2022-08-17T21:30:17.121Z,7.43
2022-08-17T21:33:06.806Z,7.95
2022-08-17T21:35:49.054Z,8.05
2022-08-17T21:38:20.619Z,8.10
2022-08-17T21:40:51.983Z,8.25
2022-08-17T21:43:32.473Z,8.50
2022-08-17T21:46:08.990Z,8.83
2022-08-17T21:48:45.102Z,7.87
2022-08-17T21:51:21.344Z,8.32
2022-08-17T21:53:52.520Z,8.30
2022-08-17T21:56:26.951Z,7.67
2022-08-17T21:58:59.542Z,8.10
2022-08-17T22:01:31.836Z,9.10
2022-08-17T22:04:05.147Z,8.80
2022-08-17T22:06:38.211Z,9.03
2022-08-17T22:09:15.239Z,9.25
2022-08-17T22:12:10.171Z,9.57
2022-08-17T22:14:52.485Z,8.73
2022-08-17T22:17:25.272Z,9.20
2022-08-17T22:19:56.306Z,8.67
2022-08-17T22:22:33.084Z,10.05
2022-08-17T22:25:05.176Z,9.07
2022-08-17T22:27:52.566Z,9.00
2022-08-17T22:30:33.107Z,8.48
2022-08-17T22:33:29.602Z,8.23
2022-08-17T22:36:12.102Z,8.80
2022-08-17T22:38:41.631Z,8.53
2022-08-17T22:41:34.691Z,9.18
2022-08-17T22:44:17.250Z,9.53
2022-08-17T22:46:57.083Z,8.82
2022-08-17T22:49:30.841Z,8.87
2022-08-17T22:52:24.372Z,9.82
2022-08-17T22:55:35.423Z,9.60
2022-08-17T22:58:28.160Z,8.60
2022-08-17T23:00:56.955Z,8.77
2022-08-17T23:03:27.956Z,8.73
2022-08-17T23:06:08.227Z,9.17
2022-08-17T23:08:43.936Z,9.27
2022-08-17T23:11:15.069Z,9.57
2022-08-17T23:13:44.380Z,9.43
2022-08-17T23:16:14.938Z,9.60
2022-08-17T23:18:43.435Z,9.77
2022-08-17T23:21:13.525Z,9.70
2022-08-17T23:23:55.433Z,9.40
2022-08-17T23:26:24.015Z,10.77
2022-08-17T23:28:52.546Z,10.30
2022-08-17T23:31:25.760Z,10.40
2022-08-17T23:33:54.892Z,11.00
2022-08-17T23:36:28.500Z,10.40
2022-08-17T23:38:57.621Z,10.40
2022-08-17T23:41:29.804Z,10.30
2022-08-17T23:44:00.966Z,10.10
2022-08-17T23:46:29.463Z,10.63
2022-08-17T23:48:57.948Z,9.40
2022-08-17T23:51:30.184Z,9.50
2022-08-17T23:54:07.692Z,9.10
2022-08-17T23:56:41.937Z,9.87
2022-08-17T23:59:11.325Z,9.53
